createdAt,value
2023-03-17T00:00:10.223Z,100739.09
2023-03-17T00:00:46.514Z,100741.75
2023-03-17T00:01:19.004Z,100733.59
2023-03-17T00:01:54.097Z,100743.91
2023-03-17T00:02:25.829Z,100746.41
2023-03-17T00:02:59.762Z,100750.09
2023-03-17T00:03:34.178Z,100748.84
2023-03-17T00:04:06.051Z,100744.69
2023-03-17T00:04:38.038Z,100743.56
2023-03-17T00:05:24.139Z,100748.03
2023-03-17T00:05:57.381Z,100748.44
2023-03-17T00:06:30.352Z,100757.84
2023-03-17T00:07:02.212Z,100755.22
2023-03-17T00:07:33.768Z,100749.28
2023-03-17T00:08:11.807Z,100749.69
2023-03-17T00:08:43.838Z,100759.47
2023-03-17T00:09:19.981Z,100757.03
2023-03-17T00:09:51.588Z,100754.59
2023-03-17T00:10:25.241Z,100750.13
2023-03-17T00:10:56.797Z,100751.75
2023-03-17T00:11:28.395Z,100746.84
2023-03-17T00:12:00.031Z,100749.69
2023-03-17T00:12:31.959Z,100756.44
2023-03-17T00:13:03.989Z,100751.78
2023-03-17T00:13:35.498Z,100744.00
2023-03-17T00:14:15.709Z,100749.31
2023-03-17T00:14:47.375Z,100748.69
2023-03-17T00:15:21.054Z,100746.03
2023-03-17T00:15:54.973Z,100746.44
2023-03-17T00:16:37.923Z,100745.25
2023-03-17T00:17:11.978Z,100741.56
2023-03-17T00:17:44.936Z,100743.19
2023-03-17T00:18:17.883Z,100749.28
2023-03-17T00:18:50.458Z,100743.53
2023-03-17T00:19:33.603Z,100741.06
2023-03-17T00:20:06.117Z,100741.53
2023-03-17T00:20:38.146Z,100730.25
2023-03-17T00:21:15.199Z,100717.09
2023-03-17T00:21:47.059Z,100710.75
2023-03-17T00:22:18.846Z,100708.53
2023-03-17T00:22:51.196Z,100711.41
2023-03-17T00:23:24.359Z,100715.44
2023-03-17T00:23:56.717Z,100718.84
2023-03-17T00:24:29.119Z,100723.50
2023-03-17T00:25:00.635Z,100728.41
2023-03-17T00:25:34.238Z,100732.13
2023-03-17T00:26:05.829Z,100726.25
2023-03-17T00:26:37.864Z,100724.81
2023-03-17T00:27:13.296Z,100725.97
2023-03-17T00:27:45.065Z,100722.28
2023-03-17T00:28:24.638Z,100723.31
2023-03-17T00:28:56.325Z,100727.19
2023-03-17T00:29:28.025Z,100724.41
2023-03-17T00:29:59.597Z,100733.97
2023-03-17T00:30:31.388Z,100729.66
2023-03-17T00:31:13.260Z,100724.56
2023-03-17T00:31:45.704Z,100727.88
2023-03-17T00:32:17.997Z,100734.63
2023-03-17T00:32:51.766Z,100730.94
2023-03-17T00:33:28.334Z,100733.78
2023-03-17T00:34:00.581Z,100734.19
2023-03-17T00:34:32.262Z,100733.53
2023-03-17T00:35:06.146Z,100742.72
2023-03-17T00:35:38.391Z,100725.97
2023-03-17T00:36:14.589Z,100728.28
2023-03-17T00:36:51.059Z,100735.75
2023-03-17T00:37:23.243Z,100734.59
2023-03-17T00:37:56.811Z,100725.72
2023-03-17T00:38:29.739Z,100725.47
2023-03-17T00:39:03.993Z,100729.53
2023-03-17T00:39:35.590Z,100728.34
2023-03-17T00:40:16.894Z,100729.22
2023-03-17T00:40:49.025Z,100728.75
2023-03-17T00:41:20.666Z,100730.00
2023-03-17T00:41:52.612Z,100729.22
2023-03-17T00:42:24.178Z,100736.94
2023-03-17T00:42:55.893Z,100736.53
2023-03-17T00:43:28.769Z,100737.47
2023-03-17T00:44:01.961Z,100736.00
2023-03-17T00:44:34.876Z,100729.75
2023-03-17T00:45:07.080Z,100736.81
2023-03-17T00:45:39.983Z,100726.63
2023-03-17T00:46:14.785Z,100735.66
2023-03-17T00:46:46.572Z,100732.44
2023-03-17T00:47:18.451Z,100731.53
2023-03-17T00:47:52.608Z,100728.25
2023-03-17T00:48:24.207Z,100726.72
2023-03-17T00:48:55.800Z,100725.88
2023-03-17T00:49:28.106Z,100722.53
2023-03-17T00:49:59.705Z,100713.56
2023-03-17T00:50:32.229Z,100701.34
2023-03-17T00:51:06.052Z,100708.34
2023-03-17T00:51:37.568Z,100702.66
2023-03-17T00:52:09.149Z,100705.03
2023-03-17T00:52:40.720Z,100705.03
2023-03-17T00:53:16.688Z,100703.34
2023-03-17T00:53:48.537Z,100703.34
2023-03-17T00:54:21.004Z,100692.78
2023-03-17T00:54:52.792Z,100696.44
2023-03-17T00:55:27.442Z,100690.34
2023-03-17T00:55:59.181Z,100689.16
2023-03-17T00:56:31.060Z,100692.38
2023-03-17T00:57:02.632Z,100691.59
2023-03-17T00:57:34.351Z,100689.56
2023-03-17T00:58:24.415Z,100689.53
2023-03-17T00:58:56.710Z,100688.41
2023-03-17T00:59:30.865Z,100686.31
2023-03-17T01:00:03.030Z,100688.56
2023-03-17T01:00:34.602Z,100678.53
2023-03-17T01:01:06.309Z,100687.91
2023-03-17T01:01:40.554Z,100682.03
2023-03-17T01:02:13.248Z,100683.84
2023-03-17T01:02:46.137Z,100691.75
2023-03-17T01:03:17.986Z,100693.47
2023-03-17T01:03:49.587Z,100693.00
2023-03-17T01:04:21.357Z,100696.44
2023-03-17T01:05:05.457Z,100696.88
2023-03-17T01:05:39.922Z,100699.69
2023-03-17T01:06:13.899Z,100703.34
2023-03-17T01:06:46.232Z,100706.25
2023-03-17T01:07:18.020Z,100698.50
2023-03-17T01:07:54.656Z,100702.56
2023-03-17T01:08:26.790Z,100705.44
2023-03-17T01:08:58.346Z,100704.59
2023-03-17T01:09:30.851Z,100706.63
2023-03-17T01:10:02.997Z,100704.59
2023-03-17T01:10:36.103Z,100706.00
2023-03-17T01:11:14.952Z,100706.59
2023-03-17T01:11:47.028Z,100704.19
2023-03-17T01:12:20.384Z,100710.28
2023-03-17T01:12:55.586Z,100708.66
2023-03-17T01:13:27.596Z,100710.28
2023-03-17T01:13:59.179Z,100709.03
2023-03-17T01:14:30.730Z,100701.69
2023-03-17T01:15:05.854Z,100704.53
2023-03-17T01:15:38.449Z,100702.53
2023-03-17T01:16:11.059Z,100691.56
2023-03-17T01:16:43.178Z,100700.72
2023-03-17T01:17:17.088Z,100697.69
2023-03-17T01:17:50.670Z,100699.69
2023-03-17T01:18:23.148Z,100704.22
2023-03-17T01:18:54.948Z,100704.19
2023-03-17T01:19:27.486Z,100716.47
2023-03-17T01:19:59.415Z,100704.88
2023-03-17T01:20:35.661Z,100705.03
2023-03-17T01:21:08.329Z,100702.19
2023-03-17T01:21:40.793Z,100700.97
2023-03-17T01:22:13.556Z,100700.13
2023-03-17T01:22:45.320Z,100701.56
2023-03-17T01:23:17.866Z,100699.94
2023-03-17T01:23:49.479Z,100696.03
2023-03-17T01:24:21.522Z,100691.78
2023-03-17T01:24:53.338Z,100701.41
2023-03-17T01:25:25.464Z,100693.09
2023-03-17T01:25:57.621Z,100689.50
2023-03-17T01:26:30.137Z,100691.53
2023-03-17T01:27:02.634Z,100692.19
2023-03-17T01:27:35.877Z,100695.19
2023-03-17T01:28:16.916Z,100692.38
2023-03-17T01:28:48.500Z,100682.53
2023-03-17T01:29:20.052Z,100678.88
2023-03-17T01:29:55.082Z,100687.03
2023-03-17T01:30:30.218Z,100678.06
2023-03-17T01:31:02.900Z,100677.06
2023-03-17T01:31:35.032Z,100668.91
2023-03-17T01:32:07.021Z,100669.13
2023-03-17T01:32:39.365Z,100668.94
2023-03-17T01:33:12.979Z,100669.56
2023-03-17T01:33:45.449Z,100674.84
2023-03-17T01:34:16.982Z,100664.97
2023-03-17T01:34:48.466Z,100667.38
2023-03-17T01:35:20.325Z,100671.44
2023-03-17T01:35:52.276Z,100674.31
2023-03-17T01:36:23.808Z,100673.69
2023-03-17T01:36:55.340Z,100679.38
2023-03-17T01:37:27.077Z,100665.31
2023-03-17T01:37:59.358Z,100671.81
2023-03-17T01:38:31.239Z,100668.53
2023-03-17T01:39:05.411Z,100666.75
2023-03-17T01:39:37.033Z,100666.53
2023-03-17T01:40:12.839Z,100669.00
2023-03-17T01:40:50.151Z,100663.28
2023-03-17T01:41:22.050Z,100660.88
2023-03-17T01:41:56.844Z,100663.09
2023-03-17T01:42:29.259Z,100661.22
2023-03-17T01:43:21.491Z,100660.22
2023-03-17T01:43:53.874Z,100658.81
2023-03-17T01:44:25.718Z,100664.50
2023-03-17T01:45:01.787Z,100664.88
2023-03-17T01:46:11.711Z,100668.19
2023-03-17T01:46:45.454Z,100670.59
2023-03-17T01:47:16.996Z,100669.38
2023-03-17T01:47:48.525Z,100668.03
2023-03-17T01:48:20.329Z,100682.34
2023-03-17T01:49:06.888Z,100670.34
2023-03-17T01:49:38.798Z,100673.50
2023-03-17T01:50:10.823Z,100671.63
2023-03-17T01:50:44.365Z,100671.03
2023-03-17T01:51:21.236Z,100676.25
2023-03-17T01:52:04.373Z,100663.16
2023-03-17T01:52:38.517Z,100669.22
2023-03-17T01:53:10.042Z,100664.34
2023-03-17T01:53:42.037Z,100662.00
2023-03-17T01:54:21.881Z,100660.03
2023-03-17T01:55:07.013Z,100658.34
2023-03-17T01:55:38.671Z,100665.47
2023-03-17T01:56:11.875Z,100665.28
2023-03-17T01:56:45.529Z,100664.84
2023-03-17T01:57:28.699Z,100662.75
2023-03-17T01:58:00.310Z,100657.47
2023-03-17T01:58:32.104Z,100668.53
2023-03-17T01:59:05.809Z,100658.59
2023-03-17T01:59:47.186Z,100661.22
2023-03-17T02:00:21.137Z,100662.88
2023-03-17T02:00:52.727Z,100659.75
2023-03-17T02:01:29.193Z,100666.41
2023-03-17T02:02:05.279Z,100655.00
2023-03-17T02:02:40.455Z,100658.63
2023-03-17T02:03:12.146Z,100662.66
2023-03-17T02:03:45.118Z,100664.69
2023-03-17T02:04:18.426Z,100664.06
2023-03-17T02:04:52.201Z,100651.91
2023-03-17T02:05:26.658Z,100658.25
2023-03-17T02:05:59.095Z,100658.25
2023-03-17T02:06:31.893Z,100654.19
2023-03-17T02:07:05.104Z,100652.38
2023-03-17T02:07:37.592Z,100654.97
2023-03-17T02:08:12.819Z,100659.41
2023-03-17T02:08:44.448Z,100659.88
2023-03-17T02:09:17.299Z,100656.38
2023-03-17T02:09:48.978Z,100656.53
2023-03-17T02:10:25.711Z,100658.66
2023-03-17T02:10:57.359Z,100657.78
2023-03-17T02:11:29.372Z,100664.31
2023-03-17T02:12:01.643Z,100660.50
2023-03-17T02:12:34.746Z,100652.09
2023-03-17T02:13:07.900Z,100657.38
2023-03-17T02:13:41.829Z,100661.03
2023-03-17T02:14:13.609Z,100655.38
2023-03-17T02:14:45.607Z,100654.78
2023-03-17T02:15:18.208Z,100645.78
2023-03-17T02:15:51.222Z,100647.44
2023-03-17T02:16:23.684Z,100645.59
2023-03-17T02:16:56.281Z,100642.00
2023-03-17T02:17:28.330Z,100650.06
2023-03-17T02:18:00.119Z,100646.22
2023-03-17T02:18:31.925Z,100643.56
2023-03-17T02:19:03.595Z,100641.50
2023-03-17T02:19:35.341Z,100638.81
2023-03-17T02:20:16.252Z,100642.69
2023-03-17T02:20:47.728Z,100645.38
2023-03-17T02:21:39.856Z,100647.56
2023-03-17T02:22:12.270Z,100650.06
2023-03-17T02:22:53.670Z,100662.91
2023-03-17T02:23:25.676Z,100650.06
2023-03-17T02:23:58.671Z,100651.66
2023-03-17T02:24:37.665Z,100648.19
2023-03-17T02:25:10.906Z,100646.81
2023-03-17T02:25:45.018Z,100646.56
2023-03-17T02:26:17.884Z,100641.75
2023-03-17T02:26:50.184Z,100644.75
2023-03-17T02:27:26.376Z,100639.84
2023-03-17T02:28:02.482Z,100645.50
2023-03-17T02:28:35.338Z,100637.63
2023-03-17T02:29:06.919Z,100636.47
2023-03-17T02:29:38.638Z,100645.66
2023-03-17T02:30:11.906Z,100641.50
2023-03-17T02:30:44.898Z,100639.88
2023-03-17T02:31:17.265Z,100637.88
2023-03-17T02:31:49.014Z,100632.56
2023-03-17T02:32:20.671Z,100637.47
2023-03-17T02:32:52.288Z,100633.97
2023-03-17T02:33:27.679Z,100634.22
2023-03-17T02:33:59.988Z,100641.66
2023-03-17T02:34:32.939Z,100637.56
2023-03-17T02:35:07.178Z,100634.59
2023-03-17T02:35:42.241Z,100635.03
2023-03-17T02:36:13.918Z,100629.38
2023-03-17T02:36:46.330Z,100642.41
2023-03-17T02:37:20.306Z,100639.50
2023-03-17T02:37:52.002Z,100635.28
2023-03-17T02:38:26.035Z,100638.13
2023-03-17T02:38:57.838Z,100633.09
2023-03-17T02:39:29.421Z,100644.69
2023-03-17T02:40:01.755Z,100646.69
2023-03-17T02:40:33.303Z,100644.34
2023-03-17T02:41:06.467Z,100645.56
2023-03-17T02:41:38.549Z,100637.25
2023-03-17T02:42:10.681Z,100631.91
2023-03-17T02:42:44.968Z,100633.00
2023-03-17T02:43:16.787Z,100635.84
2023-03-17T02:43:48.442Z,100631.72
2023-03-17T02:44:20.167Z,100635.38
2023-03-17T02:44:51.779Z,100633.72
2023-03-17T02:45:23.783Z,100635.59
2023-03-17T02:45:55.408Z,100636.22
2023-03-17T02:46:27.462Z,100639.16
2023-03-17T02:46:59.773Z,100637.09
2023-03-17T02:47:31.600Z,100633.31
2023-03-17T02:48:04.031Z,100627.75
2023-03-17T02:48:36.647Z,100634.94
2023-03-17T02:49:08.733Z,100633.84
2023-03-17T02:49:41.455Z,100641.41
2023-03-17T02:50:18.911Z,100637.94
2023-03-17T02:50:50.850Z,100636.47
2023-03-17T02:51:22.433Z,100641.56
2023-03-17T02:51:54.446Z,100636.63
2023-03-17T02:52:26.342Z,100633.81
2023-03-17T02:52:58.621Z,100627.94
2023-03-17T02:53:30.795Z,100633.81
2023-03-17T02:54:02.447Z,100636.84
2023-03-17T02:54:34.050Z,100642.81
2023-03-17T02:55:06.017Z,100635.41
2023-03-17T02:55:37.875Z,100637.50
2023-03-17T02:56:10.050Z,100644.34
2023-03-17T02:56:41.973Z,100628.91
2023-03-17T02:57:13.500Z,100635.69
2023-03-17T02:57:45.058Z,100639.72
2023-03-17T02:58:16.659Z,100634.06
2023-03-17T02:58:48.247Z,100635.16
2023-03-17T02:59:19.878Z,100638.19
2023-03-17T02:59:51.758Z,100633.16
2023-03-17T03:00:23.302Z,100635.56
2023-03-17T03:00:54.937Z,100638.03
2023-03-17T03:01:26.895Z,100636.41
2023-03-17T03:01:58.489Z,100635.16
2023-03-17T03:02:30.055Z,100635.16
2023-03-17T03:03:01.604Z,100637.25
2023-03-17T03:03:33.176Z,100629.16
2023-03-17T03:04:05.188Z,100629.31
2023-03-17T03:04:36.754Z,100628.06
2023-03-17T03:05:08.908Z,100624.97
2023-03-17T03:05:41.239Z,100625.41
2023-03-17T03:06:13.096Z,100621.38
2023-03-17T03:06:45.081Z,100622.16
2023-03-17T03:07:17.074Z,100624.91
2023-03-17T03:07:48.805Z,100620.41
2023-03-17T03:08:20.716Z,100627.94
2023-03-17T03:08:52.459Z,100632.41
2023-03-17T03:09:24.351Z,100623.63
2023-03-17T03:09:56.003Z,100619.75
2023-03-17T03:10:27.579Z,100623.19
2023-03-17T03:11:00.389Z,100623.91
2023-03-17T03:11:32.088Z,100624.09
2023-03-17T03:12:04.547Z,100627.81
2023-03-17T03:12:36.259Z,100627.03
2023-03-17T03:13:07.934Z,100622.56
2023-03-17T03:13:39.502Z,100632.13
2023-03-17T03:14:11.191Z,100631.50
2023-03-17T03:14:42.816Z,100627.00
2023-03-17T03:15:14.637Z,100625.38
2023-03-17T03:15:47.401Z,100627.34
2023-03-17T03:16:19.192Z,100618.88
2023-03-17T03:16:50.993Z,100610.97
2023-03-17T03:17:22.523Z,100620.91
2023-03-17T03:17:54.072Z,100619.91
2023-03-17T03:18:26.166Z,100613.78
2023-03-17T03:18:57.704Z,100615.63
2023-03-17T03:19:29.621Z,100620.44
2023-03-17T03:20:01.410Z,100624.09
2023-03-17T03:20:32.945Z,100625.78
2023-03-17T03:21:04.933Z,100614.78
2023-03-17T03:21:37.159Z,100621.25
2023-03-17T03:22:08.854Z,100617.44
2023-03-17T03:22:40.679Z,100628.38
2023-03-17T03:23:12.402Z,100621.66
2023-03-17T03:23:43.945Z,100625.31
2023-03-17T03:24:15.933Z,100620.94
2023-03-17T03:24:47.507Z,100625.00
2023-03-17T03:25:19.270Z,100629.88
2023-03-17T03:25:50.801Z,100621.84
2023-03-17T03:26:22.566Z,100624.09
2023-03-17T03:26:54.166Z,100618.47
2023-03-17T03:27:25.743Z,100621.34
2023-03-17T03:27:57.275Z,100616.47
2023-03-17T03:28:28.811Z,100624.78
2023-03-17T03:29:00.386Z,100622.06
2023-03-17T03:29:32.071Z,100623.56
2023-03-17T03:30:04.245Z,100626.03
2023-03-17T03:30:37.302Z,100624.97
2023-03-17T03:31:09.058Z,100632.75
2023-03-17T03:31:40.612Z,100627.00
2023-03-17T03:32:12.284Z,100627.13
2023-03-17T03:32:43.836Z,100624.16
2023-03-17T03:33:16.066Z,100625.38
2023-03-17T03:33:47.630Z,100621.66
2023-03-17T03:34:19.518Z,100619.00
2023-03-17T03:34:51.233Z,100622.47
2023-03-17T03:35:22.791Z,100625.31
2023-03-17T03:35:54.404Z,100622.84
2023-03-17T03:36:26.869Z,100626.13
2023-03-17T03:36:58.431Z,100622.84
2023-03-17T03:37:30.090Z,100630.13
2023-03-17T03:38:02.126Z,100629.53
2023-03-17T03:38:33.639Z,100616.78
2023-03-17T03:39:05.221Z,100618.19
2023-03-17T03:39:39.065Z,100615.53
2023-03-17T03:40:11.555Z,100621.06
2023-03-17T03:40:43.091Z,100622.56
2023-03-17T03:41:14.640Z,100617.66
2023-03-17T03:41:46.220Z,100614.81
2023-03-17T03:42:18.111Z,100620.53
2023-03-17T03:42:49.675Z,100618.50
2023-03-17T03:43:23.920Z,100614.81
2023-03-17T03:43:56.146Z,100614.47
2023-03-17T03:44:27.700Z,100614.41
2023-03-17T03:44:59.306Z,100611.13
2023-03-17T03:45:30.935Z,100609.50
2023-03-17T03:46:04.546Z,100614.41
2023-03-17T03:46:36.185Z,100620.06
2023-03-17T03:47:08.316Z,100621.31
2023-03-17T03:47:39.875Z,100622.34
2023-03-17T03:48:11.924Z,100622.13
2023-03-17T03:48:43.471Z,100616.06
2023-03-17T03:49:15.033Z,100618.69
2023-03-17T03:49:46.552Z,100616.41
2023-03-17T03:50:18.799Z,100618.81
2023-03-17T03:50:50.391Z,100614.00
2023-03-17T03:51:21.930Z,100616.50
2023-03-17T03:51:53.451Z,100622.59
2023-03-17T03:52:25.122Z,100605.94
2023-03-17T03:52:56.756Z,100617.94
2023-03-17T03:53:28.949Z,100619.75
2023-03-17T03:54:01.388Z,100625.00
2023-03-17T03:54:32.960Z,100616.69
2023-03-17T03:55:04.896Z,100616.50
2023-03-17T03:55:36.491Z,100610.38
2023-03-17T03:56:08.032Z,100614.47
2023-03-17T03:56:39.534Z,100612.91
2023-03-17T03:57:11.190Z,100609.19
2023-03-17T03:57:43.060Z,100616.09
2023-03-17T03:58:14.644Z,100612.28
2023-03-17T03:58:46.206Z,100614.69
2023-03-17T03:59:18.026Z,100612.03
2023-03-17T03:59:49.565Z,100619.75
2023-03-17T04:00:21.410Z,100624.22
2023-03-17T04:00:52.983Z,100629.94
2023-03-17T04:01:24.751Z,100628.41
2023-03-17T04:01:56.349Z,100623.25
2023-03-17T04:02:27.886Z,100627.09
2023-03-17T04:03:00.275Z,100631.81
2023-03-17T04:03:33.140Z,100638.91
2023-03-17T04:04:04.870Z,100635.47
2023-03-17T04:04:36.969Z,100637.50
2023-03-17T04:05:09.367Z,100630.97
2023-03-17T04:05:40.902Z,100633.59
2023-03-17T04:06:12.467Z,100628.50
2023-03-17T04:06:43.991Z,100633.16
2023-03-17T04:07:15.839Z,100632.78
2023-03-17T04:07:47.951Z,100638.06
2023-03-17T04:08:19.601Z,100627.91
2023-03-17T04:08:51.676Z,100628.34
2023-03-17T04:09:23.199Z,100624.03
2023-03-17T04:09:54.821Z,100626.78
2023-03-17T04:10:26.415Z,100620.66
2023-03-17T04:10:58.393Z,100616.13
2023-03-17T04:11:29.965Z,100618.53
2023-03-17T04:12:02.270Z,100611.22
2023-03-17T04:12:33.846Z,100618.34
2023-03-17T04:13:05.589Z,100615.13
2023-03-17T04:13:38.424Z,100617.31
2023-03-17T04:14:12.704Z,100618.91
2023-03-17T04:14:44.626Z,100622.34
2023-03-17T04:15:18.673Z,100624.34
2023-03-17T04:15:50.436Z,100624.91
2023-03-17T04:16:22.045Z,100619.22
2023-03-17T04:16:53.685Z,100617.78
2023-03-17T04:17:27.933Z,100620.69
2023-03-17T04:17:59.807Z,100617.72
2023-03-17T04:18:31.693Z,100618.75
2023-03-17T04:19:03.397Z,100614.25
2023-03-17T04:19:35.057Z,100611.94
2023-03-17T04:20:09.470Z,100609.25
2023-03-17T04:20:41.154Z,100616.34
2023-03-17T04:21:13.618Z,100621.31
2023-03-17T04:21:45.651Z,100621.53
2023-03-17T04:22:17.199Z,100624.19
2023-03-17T04:22:48.736Z,100624.53
2023-03-17T04:23:20.268Z,100625.72
2023-03-17T04:23:51.978Z,100628.13
2023-03-17T04:24:23.551Z,100624.44
2023-03-17T04:24:55.183Z,100625.25
2023-03-17T04:25:27.013Z,100637.25
2023-03-17T04:25:59.101Z,100633.78
2023-03-17T04:26:32.097Z,100628.72
2023-03-17T04:27:06.000Z,100632.72
2023-03-17T04:27:38.045Z,100633.09
2023-03-17T04:28:10.334Z,100627.84
2023-03-17T04:28:41.963Z,100626.00
2023-03-17T04:29:15.722Z,100628.63
2023-03-17T04:29:47.321Z,100630.78
2023-03-17T04:30:19.236Z,100619.59
2023-03-17T04:30:51.096Z,100627.94
2023-03-17T04:31:22.824Z,100621.84
2023-03-17T04:31:54.581Z,100625.09
2023-03-17T04:32:27.276Z,100618.81
2023-03-17T04:32:59.086Z,100614.91
2023-03-17T04:33:30.650Z,100619.69
2023-03-17T04:34:02.324Z,100624.47
2023-03-17T04:34:33.858Z,100622.84
2023-03-17T04:35:06.712Z,100626.28
2023-03-17T04:35:38.305Z,100618.09
2023-03-17T04:36:18.183Z,100624.53
2023-03-17T04:36:49.986Z,100633.44
2023-03-17T04:37:21.664Z,100619.53
2023-03-17T04:37:53.374Z,100619.97
2023-03-17T04:38:25.076Z,100612.31
2023-03-17T04:38:56.639Z,100622.47
2023-03-17T04:39:28.172Z,100624.00
2023-03-17T04:39:59.677Z,100625.06
2023-03-17T04:40:31.702Z,100629.16
2023-03-17T04:41:03.581Z,100631.75
2023-03-17T04:41:35.679Z,100637.50
2023-03-17T04:42:07.605Z,100632.84
2023-03-17T04:42:39.392Z,100637.09
2023-03-17T04:43:11.081Z,100639.88
2023-03-17T04:43:42.718Z,100648.41
2023-03-17T04:44:14.301Z,100646.56
2023-03-17T04:44:46.188Z,100647.97
2023-03-17T04:45:17.789Z,100640.03
2023-03-17T04:45:49.354Z,100643.97
2023-03-17T04:46:21.309Z,100642.91
2023-03-17T04:46:53.076Z,100643.16
2023-03-17T04:47:24.636Z,100648.97
2023-03-17T04:47:56.171Z,100641.91
2023-03-17T04:48:28.248Z,100643.91
2023-03-17T04:48:59.838Z,100648.97
2023-03-17T04:49:31.415Z,100649.53
2023-03-17T04:50:03.006Z,100645.75
2023-03-17T04:50:34.616Z,100641.91
2023-03-17T04:51:06.438Z,100646.41
2023-03-17T04:51:38.010Z,100646.50
2023-03-17T04:52:09.688Z,100635.56
2023-03-17T04:52:41.278Z,100641.50
2023-03-17T04:53:12.792Z,100633.16
2023-03-17T04:53:44.843Z,100641.78
2023-03-17T04:54:16.578Z,100638.28
2023-03-17T04:54:48.120Z,100640.66
2023-03-17T04:55:19.676Z,100632.72
2023-03-17T04:55:51.647Z,100634.59
2023-03-17T04:56:23.496Z,100625.66
2023-03-17T04:56:55.135Z,100638.13
2023-03-17T04:57:26.744Z,100645.44
2023-03-17T04:57:58.382Z,100643.38
2023-03-17T04:58:31.263Z,100639.31
2023-03-17T04:59:03.041Z,100638.91
2023-03-17T04:59:34.612Z,100643.19
2023-03-17T05:00:07.580Z,100637.69
2023-03-17T05:00:39.432Z,100644.63
2023-03-17T05:01:11.218Z,100645.44
2023-03-17T05:01:42.982Z,100647.06
2023-03-17T05:02:14.520Z,100636.78
2023-03-17T05:02:46.244Z,100641.94
2023-03-17T05:03:26.605Z,100639.31
2023-03-17T05:03:59.236Z,100642.16
2023-03-17T05:04:32.189Z,100633.47
2023-03-17T05:05:04.373Z,100633.72
2023-03-17T05:05:36.629Z,100630.38
2023-03-17T05:06:08.553Z,100632.03
2023-03-17T05:06:40.656Z,100642.41
2023-03-17T05:07:12.654Z,100636.06
2023-03-17T05:07:44.961Z,100640.91
2023-03-17T05:08:17.307Z,100642.91
2023-03-17T05:08:48.806Z,100645.44
2023-03-17T05:09:20.878Z,100648.28
2023-03-17T05:09:52.397Z,100641.41
2023-03-17T05:10:23.975Z,100645.19
2023-03-17T05:10:56.265Z,100644.91
2023-03-17T05:11:27.788Z,100643.91
2023-03-17T05:11:59.502Z,100643.72
2023-03-17T05:12:31.133Z,100640.66
2023-03-17T05:13:02.888Z,100645.72
2023-03-17T05:13:34.495Z,100644.91
2023-03-17T05:14:06.399Z,100647.03
2023-03-17T05:14:38.109Z,100639.72
2023-03-17T05:15:10.086Z,100640.44
2023-03-17T05:15:46.906Z,100638.44
2023-03-17T05:16:18.524Z,100639.28
2023-03-17T05:16:51.037Z,100636.06
2023-03-17T05:17:22.628Z,100642.22
2023-03-17T05:17:54.145Z,100642.16
2023-03-17T05:18:25.996Z,100637.25
2023-03-17T05:18:57.532Z,100637.25
2023-03-17T05:19:29.058Z,100640.44
2023-03-17T05:20:00.869Z,100642.28
2023-03-17T05:20:32.767Z,100639.09
2023-03-17T05:21:06.341Z,100638.13
2023-03-17T05:21:37.996Z,100639.53
2023-03-17T05:22:09.784Z,100638.50
2023-03-17T05:22:41.746Z,100640.91
2023-03-17T05:23:13.282Z,100641.53
2023-03-17T05:23:44.880Z,100637.25
2023-03-17T05:24:16.775Z,100633.22
2023-03-17T05:24:48.311Z,100639.31
2023-03-17T05:25:19.910Z,100634.84
2023-03-17T05:25:52.690Z,100640.78
2023-03-17T05:26:24.266Z,100645.88
2023-03-17T05:26:56.010Z,100639.41
2023-03-17T05:27:27.706Z,100637.38
2023-03-17T05:27:59.778Z,100643.31
2023-03-17T05:28:32.517Z,100644.22
2023-03-17T05:29:04.380Z,100652.78
2023-03-17T05:29:35.913Z,100648.97
2023-03-17T05:30:08.385Z,100643.09
2023-03-17T05:30:40.512Z,100638.63
2023-03-17T05:31:12.135Z,100640.66
2023-03-17T05:31:43.905Z,100634.53
2023-03-17T05:32:15.425Z,100637.47
2023-03-17T05:32:47.175Z,100640.13
2023-03-17T05:33:19.288Z,100639.50
2023-03-17T05:33:51.132Z,100636.84
2023-03-17T05:34:22.833Z,100645.59
2023-03-17T05:34:54.472Z,100644.94
2023-03-17T05:35:26.090Z,100635.38
2023-03-17T05:35:57.810Z,100638.25
2023-03-17T05:36:29.380Z,100642.00
2023-03-17T05:37:01.308Z,100639.97
2023-03-17T05:37:33.231Z,100636.66
2023-03-17T05:38:04.745Z,100637.09
2023-03-17T05:38:36.369Z,100636.66
2023-03-17T05:39:09.127Z,100640.91
2023-03-17T05:39:40.607Z,100640.31
2023-03-17T05:40:12.895Z,100648.09
2023-03-17T05:40:44.818Z,100642.72
2023-03-17T05:41:16.598Z,100640.84
2023-03-17T05:41:48.226Z,100641.66
2023-03-17T05:42:19.758Z,100632.28
2023-03-17T05:42:51.556Z,100633.53
2023-03-17T05:43:23.081Z,100638.41
2023-03-17T05:43:54.669Z,100640.03
2023-03-17T05:44:26.291Z,100637.63
2023-03-17T05:44:58.563Z,100638.59
2023-03-17T05:45:30.533Z,100636.00
2023-03-17T05:46:02.105Z,100642.47
2023-03-17T05:46:33.831Z,100638.81
2023-03-17T05:47:05.634Z,100637.31
2023-03-17T05:47:37.368Z,100629.44
2023-03-17T05:48:08.972Z,100637.72
2023-03-17T05:48:40.740Z,100629.78
2023-03-17T05:49:12.770Z,100631.78
2023-03-17T05:49:44.314Z,100623.25
2023-03-17T05:50:16.125Z,100625.72
2023-03-17T05:50:48.134Z,100622.06
2023-03-17T05:51:21.282Z,100623.78
2023-03-17T05:51:52.890Z,100632.53
2023-03-17T05:52:24.450Z,100627.84
2023-03-17T05:52:55.985Z,100634.34
2023-03-17T05:53:28.324Z,100628.63
2023-03-17T05:53:59.876Z,100633.66
2023-03-17T05:54:31.450Z,100637.09
2023-03-17T05:55:03.455Z,100638.09
2023-03-17T05:55:35.286Z,100642.09
2023-03-17T05:56:07.422Z,100634.28
2023-03-17T05:56:39.193Z,100637.75
2023-03-17T05:57:11.042Z,100628.75
2023-03-17T05:57:42.566Z,100638.41
2023-03-17T05:58:15.784Z,100631.13
2023-03-17T05:58:47.366Z,100625.38
2023-03-17T05:59:18.944Z,100626.75
2023-03-17T05:59:51.013Z,100622.66
2023-03-17T06:00:23.646Z,100628.13
2023-03-17T06:00:55.279Z,100629.78
2023-03-17T06:01:27.456Z,100630.09
2023-03-17T06:01:59.045Z,100627.22
2023-03-17T06:02:30.614Z,100629.88
2023-03-17T06:03:03.862Z,100631.41
2023-03-17T06:03:38.603Z,100628.56
2023-03-17T06:04:10.415Z,100631.41
2023-03-17T06:04:43.194Z,100630.19
2023-03-17T06:05:14.760Z,100629.78
2023-03-17T06:05:46.311Z,100632.66
2023-03-17T06:06:18.642Z,100634.38
2023-03-17T06:06:50.148Z,100630.56
2023-03-17T06:07:21.909Z,100634.41
2023-03-17T06:07:56.388Z,100629.94
2023-03-17T06:08:28.142Z,100636.44
2023-03-17T06:08:59.868Z,100627.91
2023-03-17T06:09:31.954Z,100632.78
2023-03-17T06:10:04.353Z,100628.53
2023-03-17T06:10:36.241Z,100623.44
2023-03-17T06:11:08.246Z,100625.47
2023-03-17T06:11:39.816Z,100620.22
2023-03-17T06:12:11.410Z,100632.28
2023-03-17T06:12:43.052Z,100617.00
2023-03-17T06:13:15.482Z,100625.97